sensor_id;sensor_type;location;lat;lon;timestamp;pressure;altitude;pressure_sealevel;temperature;humidity
11343;BME280;5726;42.160;24.746;2022-12-17T00:00:58;99635.09;;;11.60;100.00
11343;BME280;5726;42.160;24.746;2022-12-17T00:03:43;99632.59;;;11.45;100.00
11343;BME280;5726;42.160;24.746;2022-12-17T00:06:27;99637.59;;;11.33;100.00
11343;BME280;5726;42.160;24.746;2022-12-17T00:09:11;99633.38;;;11.27;100.00
11343;BME280;5726;42.160;24.746;2022-12-17T00:11:55;99637.22;;;11.40;100.00
11343;BME280;5726;42.160;24.746;2022-12-17T00:14:39;99645.16;;;11.31;100.00
11343;BME280;5726;42.160;24.746;2022-12-17T00:17:23;99648.41;;;11.46;100.00
11343;BME280;5726;42.160;24.746;2022-12-17T00:20:07;99638.84;;;11.41;100.00
11343;BME280;5726;42.160;24.746;2022-12-17T00:23:02;99640.06;;;11.30;100.00
11343;BME280;5726;42.160;24.746;2022-12-17T00:25:54;99648.19;;;11.43;100.00
11343;BME280;5726;42.160;24.746;2022-12-17T00:28:39;99631.50;;;11.46;100.00
11343;BME280;5726;42.160;24.746;2022-12-17T00:31:27;99637.47;;;11.43;100.00
11343;BME280;5726;42.160;24.746;2022-12-17T00:34:11;99632.59;;;11.27;100.00
11343;BME280;5726;42.160;24.746;2022-12-17T00:36:55;99632.22;;;11.33;100.00
11343;BME280;5726;42.160;24.746;2022-12-17T00:39:39;99636.94;;;11.41;100.00
11343;BME280;5726;42.160;24.746;2022-12-17T00:42:23;99648.53;;;11.18;100.00
11343;BME280;5726;42.160;24.746;2022-12-17T00:45:07;99631.03;;;11.02;100.00
11343;BME280;5726;42.160;24.746;2022-12-17T00:47:51;99618.66;;;11.06;100.00
11343;BME280;5726;42.160;24.746;2022-12-17T00:50:35;99622.47;;;11.00;100.00
11343;BME280;5726;42.160;24.746;2022-12-17T00:53:19;99623.50;;;11.04;100.00
11343;BME280;5726;42.160;24.746;2022-12-17T00:56:03;99623.94;;;11.11;100.00
11343;BME280;5726;42.160;24.746;2022-12-17T00:58:47;99611.91;;;11.27;100.00
11343;BME280;5726;42.160;24.746;2022-12-17T01:01:31;99623.09;;;11.34;100.00
11343;BME280;5726;42.160;24.746;2022-12-17T01:04:15;99621.63;;;11.23;100.00
11343;BME280;5726;42.160;24.746;2022-12-17T01:06:59;99626.28;;;11.18;100.00
11343;BME280;5726;42.160;24.746;2022-12-17T01:09:43;99630.91;;;11.12;100.00
11343;BME280;5726;42.160;24.746;2022-12-17T01:12:27;99623.22;;;11.24;100.00
11343;BME280;5726;42.160;24.746;2022-12-17T01:15:11;99622.72;;;11.22;100.00
11343;BME280;5726;42.160;24.746;2022-12-17T01:17:55;99615.50;;;11.59;100.00
11343;BME280;5726;42.160;24.746;2022-12-17T01:20:39;99598.34;;;11.00;100.00
11343;BME280;5726;42.160;24.746;2022-12-17T01:23:23;99607.53;;;11.13;100.00
11343;BME280;5726;42.160;24.746;2022-12-17T01:26:07;99592.75;;;11.15;100.00
11343;BME280;5726;42.160;24.746;2022-12-17T01:28:51;99603.00;;;11.32;100.00
11343;BME280;5726;42.160;24.746;2022-12-17T01:31:35;99601.44;;;11.44;100.00
11343;BME280;5726;42.160;24.746;2022-12-17T01:34:18;99602.72;;;11.15;100.00
11343;BME280;5726;42.160;24.746;2022-12-17T01:37:03;99590.53;;;11.22;100.00
11343;BME280;5726;42.160;24.746;2022-12-17T01:39:47;99597.56;;;11.18;100.00
11343;BME280;5726;42.160;24.746;2022-12-17T01:42:42;99590.28;;;11.19;100.00
11343;BME280;5726;42.160;24.746;2022-12-17T01:45:44;99587.09;;;11.35;100.00
11343;BME280;5726;42.160;24.746;2022-12-17T01:48:37;99577.69;;;11.19;100.00
11343;BME280;5726;42.160;24.746;2022-12-17T01:51:22;99587.19;;;11.30;100.00
11343;BME280;5726;42.160;24.746;2022-12-17T01:54:08;99566.00;;;11.47;100.00
11343;BME280;5726;42.160;24.746;2022-12-17T01:56:52;99576.16;;;11.32;100.00
11343;BME280;5726;42.160;24.746;2022-12-17T02:02:32;99582.00;;;11.34;100.00
11343;BME280;5726;42.160;24.746;2022-12-17T02:05:21;99578.84;;;11.32;100.00
11343;BME280;5726;42.160;24.746;2022-12-17T02:11:41;99579.13;;;11.30;100.00
11343;BME280;5726;42.160;24.746;2022-12-17T02:14:52;99583.03;;;11.38;100.00
11343;BME280;5726;42.160;24.746;2022-12-17T02:17:43;99586.84;;;11.55;100.00
11343;BME280;5726;42.160;24.746;2022-12-17T02:20:43;99576.94;;;11.32;100.00
11343;BME280;5726;42.160;24.746;2022-12-17T02:26:53;99583.78;;;11.43;100.00
11343;BME280;5726;42.160;24.746;2022-12-17T02:29:43;99589.06;;;11.30;100.00
11343;BME280;5726;42.160;24.746;2022-12-17T02:32:29;99581.03;;;11.48;100.00
11343;BME280;5726;42.160;24.746;2022-12-17T02:35:23;99581.13;;;11.38;100.00
11343;BME280;5726;42.160;24.746;2022-12-17T02:38:19;99596.47;;;11.38;100.00
11343;BME280;5726;42.160;24.746;2022-12-17T02:41:05;99586.91;;;11.50;100.00
11343;BME280;5726;42.160;24.746;2022-12-17T02:43:50;99597.69;;;11.45;100.00
11343;BME280;5726;42.160;24.746;2022-12-17T02:46:37;99587.31;;;11.39;100.00
11343;BME280;5726;42.160;24.746;2022-12-17T02:49:22;99595.38;;;11.39;100.00
11343;BME280;5726;42.160;24.746;2022-12-17T02:52:07;99585.13;;;11.59;100.00
11343;BME280;5726;42.160;24.746;2022-12-17T02:54:51;99595.16;;;11.17;100.00
11343;BME280;5726;42.160;24.746;2022-12-17T02:57:34;99594.38;;;11.16;100.00
11343;BME280;5726;42.160;24.746;2022-12-17T03:00:18;99595.31;;;11.25;100.00
11343;BME280;5726;42.160;24.746;2022-12-17T03:03:02;99596.19;;;11.21;100.00
11343;BME280;5726;42.160;24.746;2022-12-17T03:05:46;99598.25;;;11.05;100.00
11343;BME280;5726;42.160;24.746;2022-12-17T03:08:30;99582.03;;;11.15;100.00
11343;BME280;5726;42.160;24.746;2022-12-17T03:11:13;99585.06;;;11.27;100.00
11343;BME280;5726;42.160;24.746;2022-12-17T03:13:57;99574.47;;;11.17;100.00
11343;BME280;5726;42.160;24.746;2022-12-17T03:16:41;99569.13;;;10.99;100.00
11343;BME280;5726;42.160;24.746;2022-12-17T03:19:25;99583.19;;;11.09;100.00
11343;BME280;5726;42.160;24.746;2022-12-17T03:22:08;99562.69;;;11.00;100.00
11343;BME280;5726;42.160;24.746;2022-12-17T03:24:52;99580.78;;;11.08;100.00
11343;BME280;5726;42.160;24.746;2022-12-17T03:27:53;99577.44;;;11.16;100.00
11343;BME280;5726;42.160;24.746;2022-12-17T03:30:37;99555.13;;;11.02;100.00
11343;BME280;5726;42.160;24.746;2022-12-17T03:33:20;99577.09;;;11.22;100.00
11343;BME280;5726;42.160;24.746;2022-12-17T03:36:04;99560.28;;;10.98;100.00
11343;BME280;5726;42.160;24.746;2022-12-17T03:38:48;99572.75;;;11.08;100.00
11343;BME280;5726;42.160;24.746;2022-12-17T03:41:32;99541.56;;;10.94;100.00
11343;BME280;5726;42.160;24.746;2022-12-17T03:44:16;99567.22;;;10.99;100.00
11343;BME280;5726;42.160;24.746;2022-12-17T03:46:59;99543.00;;;11.23;100.00
11343;BME280;5726;42.160;24.746;2022-12-17T03:49:43;99566.31;;;11.09;100.00
11343;BME280;5726;42.160;24.746;2022-12-17T03:52:27;99554.75;;;11.08;100.00
11343;BME280;5726;42.160;24.746;2022-12-17T03:55:12;99543.44;;;11.11;100.00
11343;BME280;5726;42.160;24.746;2022-12-17T03:57:56;99551.13;;;10.99;100.00
11343;BME280;5726;42.160;24.746;2022-12-17T04:00:40;99555.41;;;11.19;100.00
11343;BME280;5726;42.160;24.746;2022-12-17T04:03:23;99531.41;;;11.27;100.00
11343;BME280;5726;42.160;24.746;2022-12-17T04:06:07;99544.38;;;11.20;100.00
11343;BME280;5726;42.160;24.746;2022-12-17T04:08:52;99537.44;;;11.19;100.00
11343;BME280;5726;42.160;24.746;2022-12-17T04:11:36;99508.56;;;11.11;100.00
11343;BME280;5726;42.160;24.746;2022-12-17T04:14:19;99547.44;;;11.14;100.00
11343;BME280;5726;42.160;24.746;2022-12-17T04:17:03;99501.00;;;11.32;100.00
11343;BME280;5726;42.160;24.746;2022-12-17T04:19:47;99552.59;;;11.10;100.00
11343;BME280;5726;42.160;24.746;2022-12-17T04:22:31;99512.06;;;10.94;100.00
11343;BME280;5726;42.160;24.746;2022-12-17T04:25:14;99519.97;;;11.03;100.00
11343;BME280;5726;42.160;24.746;2022-12-17T04:27:59;99518.66;;;11.01;100.00
11343;BME280;5726;42.160;24.746;2022-12-17T04:30:42;99485.75;;;10.96;100.00
11343;BME280;5726;42.160;24.746;2022-12-17T04:33:26;99511.41;;;10.83;100.00
11343;BME280;5726;42.160;24.746;2022-12-17T04:36:10;99503.34;;;10.83;100.00
11343;BME280;5726;42.160;24.746;2022-12-17T04:38:54;99502.78;;;10.86;100.00
11343;BME280;5726;42.160;24.746;2022-12-17T04:41:38;99527.28;;;10.80;100.00
11343;BME280;5726;42.160;24.746;2022-12-17T04:44:21;99476.19;;;10.90;100.00
11343;BME280;5726;42.160;24.746;2022-12-17T04:47:05;99529.75;;;10.95;100.00
11343;BME280;5726;42.160;24.746;2022-12-17T04:49:49;99477.25;;;10.89;100.00
11343;BME280;5726;42.160;24.746;2022-12-17T04:52:33;99513.56;;;10.63;100.00
11343;BME280;5726;42.160;24.746;2022-12-17T04:55:17;99479.16;;;10.88;100.00
11343;BME280;5726;42.160;24.746;2022-12-17T04:58:05;99502.84;;;10.81;100.00
11343;BME280;5726;42.160;24.746;2022-12-17T05:00:53;99513.28;;;10.83;100.00
11343;BME280;5726;42.160;24.746;2022-12-17T05:03:38;99504.88;;;10.89;100.00
11343;BME280;5726;42.160;24.746;2022-12-17T05:06:21;99522.56;;;10.90;100.00
11343;BME280;5726;42.160;24.746;2022-12-17T05:09:05;99515.53;;;10.76;100.00
11343;BME280;5726;42.160;24.746;2022-12-17T05:11:49;99510.19;;;10.94;100.00
11343;BME280;5726;42.160;24.746;2022-12-17T05:14:33;99530.25;;;10.96;100.00
11343;BME280;5726;42.160;24.746;2022-12-17T05:17:17;99536.13;;;10.98;100.00
11343;BME280;5726;42.160;24.746;2022-12-17T05:20:02;99525.19;;;11.13;100.00
11343;BME280;5726;42.160;24.746;2022-12-17T05:22:46;99541.88;;;11.10;100.00
11343;BME280;5726;42.160;24.746;2022-12-17T05:25:29;99532.56;;;11.21;100.00
11343;BME280;5726;42.160;24.746;2022-12-17T05:28:13;99549.09;;;11.28;100.00
11343;BME280;5726;42.160;24.746;2022-12-17T05:30:58;99525.59;;;11.20;100.00
11343;BME280;5726;42.160;24.746;2022-12-17T05:33:42;99544.59;;;11.05;100.00
11343;BME280;5726;42.160;24.746;2022-12-17T05:36:26;99512.25;;;11.15;100.00
11343;BME280;5726;42.160;24.746;2022-12-17T05:39:10;99556.06;;;11.11;100.00
11343;BME280;5726;42.160;24.746;2022-12-17T05:41:54;99501.25;;;10.98;100.00
11343;BME280;5726;42.160;24.746;2022-12-17T05:44:38;99565.06;;;11.01;100.00
11343;BME280;5726;42.160;24.746;2022-12-17T05:47:21;99537.16;;;11.21;100.00
11343;BME280;5726;42.160;24.746;2022-12-17T05:50:06;99574.97;;;11.01;100.00
11343;BME280;5726;42.160;24.746;2022-12-17T05:52:50;99548.03;;;10.93;100.00
11343;BME280;5726;42.160;24.746;2022-12-17T05:55:34;99569.81;;;10.86;100.00
11343;BME280;5726;42.160;24.746;2022-12-17T05:58:17;99534.16;;;10.86;100.00
11343;BME280;5726;42.160;24.746;2022-12-17T06:01:03;99574.03;;;10.74;100.00
11343;BME280;5726;42.160;24.746;2022-12-17T06:03:48;99548.81;;;10.75;100.00
11343;BME280;5726;42.160;24.746;2022-12-17T06:06:32;99584.59;;;10.42;100.00
11343;BME280;5726;42.160;24.746;2022-12-17T06:09:17;99555.56;;;10.49;100.00
11343;BME280;5726;42.160;24.746;2022-12-17T06:12:01;99593.78;;;10.36;100.00
11343;BME280;5726;42.160;24.746;2022-12-17T06:14:45;99547.13;;;10.37;100.00
11343;BME280;5726;42.160;24.746;2022-12-17T06:17:29;99615.66;;;10.43;100.00
11343;BME280;5726;42.160;24.746;2022-12-17T06:20:14;99612.59;;;10.54;100.00
11343;BME280;5726;42.160;24.746;2022-12-17T06:23:07;99615.59;;;10.95;100.00
11343;BME280;5726;42.160;24.746;2022-12-17T06:25:53;99629.19;;;11.21;100.00
11343;BME280;5726;42.160;24.746;2022-12-17T06:28:39;99617.56;;;11.26;100.00
11343;BME280;5726;42.160;24.746;2022-12-17T06:31:24;99636.56;;;11.29;100.00
11343;BME280;5726;42.160;24.746;2022-12-17T06:34:08;99637.44;;;11.06;100.00
11343;BME280;5726;42.160;24.746;2022-12-17T06:36:52;99634.25;;;11.41;100.00
11343;BME280;5726;42.160;24.746;2022-12-17T06:39:36;99614.56;;;11.50;100.00
11343;BME280;5726;42.160;24.746;2022-12-17T06:42:20;99631.56;;;11.41;100.00
11343;BME280;5726;42.160;24.746;2022-12-17T06:45:05;99618.81;;;11.51;100.00
11343;BME280;5726;42.160;24.746;2022-12-17T06:47:49;99599.72;;;11.53;100.00
11343;BME280;5726;42.160;24.746;2022-12-17T06:50:33;99638.56;;;11.60;100.00
11343;BME280;5726;42.160;24.746;2022-12-17T06:53:17;99603.25;;;11.53;100.00
11343;BME280;5726;42.160;24.746;2022-12-17T06:56:01;99627.81;;;11.60;100.00
11343;BME280;5726;42.160;24.746;2022-12-17T06:58:45;99607.94;;;11.61;100.00
11343;BME280;5726;42.160;24.746;2022-12-17T07:01:29;99614.31;;;11.65;100.00
11343;BME280;5726;42.160;24.746;2022-12-17T07:04:13;99593.84;;;11.69;100.00
11343;BME280;5726;42.160;24.746;2022-12-17T07:06:58;99609.59;;;11.76;100.00
11343;BME280;5726;42.160;24.746;2022-12-17T07:09:42;99587.69;;;12.14;100.00
11343;BME280;5726;42.160;24.746;2022-12-17T07:12:26;99586.03;;;12.31;100.00
11343;BME280;5726;42.160;24.746;2022-12-17T07:15:11;99602.56;;;12.38;100.00
11343;BME280;5726;42.160;24.746;2022-12-17T07:18:00;99597.47;;;12.23;100.00
11343;BME280;5726;42.160;24.746;2022-12-17T07:20:44;99604.59;;;12.01;100.00
11343;BME280;5726;42.160;24.746;2022-12-17T07:23:28;99583.09;;;11.69;100.00
11343;BME280;5726;42.160;24.746;2022-12-17T07:26:12;99602.91;;;11.73;100.00
11343;BME280;5726;42.160;24.746;2022-12-17T07:28:56;99617.38;;;11.59;100.00
11343;BME280;5726;42.160;24.746;2022-12-17T07:31:40;99604.25;;;11.21;100.00
11343;BME280;5726;42.160;24.746;2022-12-17T07:34:24;99621.63;;;11.23;100.00
11343;BME280;5726;42.160;24.746;2022-12-17T07:37:08;99604.94;;;11.26;100.00
11343;BME280;5726;42.160;24.746;2022-12-17T07:39:52;99610.38;;;11.03;100.00
11343;BME280;5726;42.160;24.746;2022-12-17T07:42:38;99610.53;;;11.30;100.00
11343;BME280;5726;42.160;24.746;2022-12-17T07:45:23;99630.34;;;11.15;100.00
11343;BME280;5726;42.160;24.746;2022-12-17T07:48:07;99628.72;;;11.14;100.00
11343;BME280;5726;42.160;24.746;2022-12-17T07:50:55;99647.59;;;11.09;100.00
11343;BME280;5726;42.160;24.746;2022-12-17T07:53:39;99643.25;;;11.13;100.00
11343;BME280;5726;42.160;24.746;2022-12-17T07:56:23;99659.72;;;11.25;100.00
11343;BME280;5726;42.160;24.746;2022-12-17T07:59:07;99658.19;;;11.19;100.00
11343;BME280;5726;42.160;24.746;2022-12-17T08:01:51;99679.78;;;11.09;100.00
11343;BME280;5726;42.160;24.746;2022-12-17T08:04:36;99691.19;;;10.96;100.00
11343;BME280;5726;42.160;24.746;2022-12-17T08:07:20;99680.47;;;10.96;100.00
11343;BME280;5726;42.160;24.746;2022-12-17T08:10:04;99691.09;;;11.06;100.00
11343;BME280;5726;42.160;24.746;2022-12-17T08:12:54;99687.72;;;11.19;100.00
11343;BME280;5726;42.160;24.746;2022-12-17T08:15:39;99702.72;;;11.20;100.00
11343;BME280;5726;42.160;24.746;2022-12-17T08:18:23;99686.13;;;11.37;100.00
11343;BME280;5726;42.160;24.746;2022-12-17T08:21:06;99696.56;;;11.20;100.00
11343;BME280;5726;42.160;24.746;2022-12-17T08:23:51;99708.75;;;11.54;100.00
11343;BME280;5726;42.160;24.746;2022-12-17T08:26:34;99698.06;;;11.07;100.00
11343;BME280;5726;42.160;24.746;2022-12-17T08:29:18;99708.16;;;11.57;100.00
11343;BME280;5726;42.160;24.746;2022-12-17T08:32:02;99711.97;;;11.33;100.00
11343;BME280;5726;42.160;24.746;2022-12-17T08:34:46;99710.84;;;11.15;100.00
11343;BME280;5726;42.160;24.746;2022-12-17T08:37:29;99700.56;;;11.22;100.00
11343;BME280;5726;42.160;24.746;2022-12-17T08:40:14;99695.78;;;11.19;100.00
11343;BME280;5726;42.160;24.746;2022-12-17T08:42:58;99700.22;;;11.05;100.00
11343;BME280;5726;42.160;24.746;2022-12-17T08:45:49;99688.91;;;11.08;100.00
11343;BME280;5726;42.160;24.746;2022-12-17T08:48:34;99686.41;;;10.94;100.00
11343;BME280;5726;42.160;24.746;2022-12-17T08:51:19;99684.25;;;10.96;100.00
11343;BME280;5726;42.160;24.746;2022-12-17T08:54:03;99656.66;;;10.72;100.00
11343;BME280;5726;42.160;24.746;2022-12-17T08:56:47;99666.78;;;10.98;100.00
11343;BME280;5726;42.160;24.746;2022-12-17T08:59:31;99654.88;;;10.86;100.00
11343;BME280;5726;42.160;24.746;2022-12-17T09:02:15;99654.00;;;10.90;100.00
11343;BME280;5726;42.160;24.746;2022-12-17T09:04:59;99670.09;;;11.13;100.00
11343;BME280;5726;42.160;24.746;2022-12-17T09:07:43;99676.53;;;11.12;100.00
11343;BME280;5726;42.160;24.746;2022-12-17T09:10:28;99681.38;;;11.10;100.00
11343;BME280;5726;42.160;24.746;2022-12-17T09:13:12;99677.34;;;10.90;100.00
11343;BME280;5726;42.160;24.746;2022-12-17T09:15:56;99679.09;;;10.76;100.00
11343;BME280;5726;42.160;24.746;2022-12-17T09:18:41;99696.13;;;10.90;100.00
11343;BME280;5726;42.160;24.746;2022-12-17T09:21:29;99686.81;;;11.05;100.00
11343;BME280;5726;42.160;24.746;2022-12-17T09:24:14;99679.34;;;10.79;100.00
11343;BME280;5726;42.160;24.746;2022-12-17T09:26:59;99677.78;;;10.96;100.00
11343;BME280;5726;42.160;24.746;2022-12-17T09:29:43;99697.53;;;11.05;100.00
11343;BME280;5726;42.160;24.746;2022-12-17T09:32:27;99705.09;;;11.22;100.00
11343;BME280;5726;42.160;24.746;2022-12-17T09:35:11;99710.34;;;11.13;100.00
11343;BME280;5726;42.160;24.746;2022-12-17T09:37:56;99714.78;;;11.23;100.00
11343;BME280;5726;42.160;24.746;2022-12-17T09:40:45;99700.28;;;11.00;100.00
11343;BME280;5726;42.160;24.746;2022-12-17T09:43:44;99699.22;;;11.01;100.00
11343;BME280;5726;42.160;24.746;2022-12-17T09:49:52;99682.47;;;11.51;100.00
11343;BME280;5726;42.160;24.746;2022-12-17T09:52:40;99679.81;;;11.28;100.00
11343;BME280;5726;42.160;24.746;2022-12-17T09:55:38;99670.25;;;11.40;100.00
11343;BME280;5726;42.160;24.746;2022-12-17T09:58:26;99651.44;;;11.22;100.00
11343;BME280;5726;42.160;24.746;2022-12-17T10:01:24;99647.63;;;11.46;100.00
11343;BME280;5726;42.160;24.746;2022-12-17T10:04:19;99623.09;;;11.34;100.00
11343;BME280;5726;42.160;24.746;2022-12-17T10:07:12;99631.50;;;11.46;100.00
11343;BME280;5726;42.160;24.746;2022-12-17T10:10:00;99630.63;;;11.32;100.00
11343;BME280;5726;42.160;24.746;2022-12-17T10:12:44;99619.88;;;11.32;100.00
11343;BME280;5726;42.160;24.746;2022-12-17T10:15:29;99623.16;;;11.29;100.00
11343;BME280;5726;42.160;24.746;2022-12-17T10:18:13;99616.34;;;11.37;100.00
11343;BME280;5726;42.160;24.746;2022-12-17T10:21:01;99612.09;;;11.54;100.00
11343;BME280;5726;42.160;24.746;2022-12-17T10:23:47;99626.00;;;11.38;100.00
11343;BME280;5726;42.160;24.746;2022-12-17T10:26:33;99628.97;;;11.54;100.00
11343;BME280;5726;42.160;24.746;2022-12-17T10:29:21;99615.19;;;11.24;100.00
11343;BME280;5726;42.160;24.746;2022-12-17T10:32:19;99600.25;;;11.55;100.00
11343;BME280;5726;42.160;24.746;2022-12-17T10:38:29;99613.88;;;11.22;100.00
11343;BME280;5726;42.160;24.746;2022-12-17T10:41:26;99604.28;;;11.16;100.00
11343;BME280;5726;42.160;24.746;2022-12-17T10:44:32;99606.53;;;11.27;100.00
11343;BME280;5726;42.160;24.746;2022-12-17T10:50:15;99618.97;;;11.42;100.00
11343;BME280;5726;42.160;24.746;2022-12-17T10:53:01;99617.81;;;11.47;100.00
11343;BME280;5726;42.160;24.746;2022-12-17T10:55:52;99592.41;;;11.40;100.00
11343;BME280;5726;42.160;24.746;2022-12-17T10:58:42;99605.00;;;11.40;100.00
11343;BME280;5726;42.160;24.746;2022-12-17T11:01:27;99609.59;;;11.76;100.00
11343;BME280;5726;42.160;24.746;2022-12-17T11:04:33;99579.63;;;11.69;100.00
11343;BME280;5726;42.160;24.746;2022-12-17T11:07:24;99570.00;;;11.81;100.00
11343;BME280;5726;42.160;24.746;2022-12-17T11:10:21;99579.84;;;11.54;100.00
11343;BME280;5726;42.160;24.746;2022-12-17T11:13:13;99580.50;;;11.46;100.00
11343;BME280;5726;42.160;24.746;2022-12-17T11:15:59;99597.34;;;11.70;100.00
11343;BME280;5726;42.160;24.746;2022-12-17T11:21:41;99602.13;;;11.54;100.00
11343;BME280;5726;42.160;24.746;2022-12-17T11:24:31;99578.81;;;11.68;100.00
11343;BME280;5726;42.160;24.746;2022-12-17T11:27:20;99602.25;;;11.94;100.00
11343;BME280;5726;42.160;24.746;2022-12-17T11:30:13;99597.69;;;11.82;100.00
11343;BME280;5726;42.160;24.746;2022-12-17T11:33:14;99629.94;;;11.95;100.00
11343;BME280;5726;42.160;24.746;2022-12-17T11:36:10;99645.84;;;11.92;100.00
11343;BME280;5726;42.160;24.746;2022-12-17T11:39:18;99667.66;;;11.72;100.00
11343;BME280;5726;42.160;24.746;2022-12-17T11:42:14;99666.81;;;11.58;100.00
11343;BME280;5726;42.160;24.746;2022-12-17T11:47:57;99667.91;;;11.89;100.00
11343;BME280;5726;42.160;24.746;2022-12-17T11:50:48;99691.34;;;11.70;100.00
11343;BME280;5726;42.160;24.746;2022-12-17T11:54:11;99691.03;;;11.53;100.00
11343;BME280;5726;42.160;24.746;2022-12-17T11:57:11;99716.78;;;11.12;100.00
11343;BME280;5726;42.160;24.746;2022-12-17T12:00:11;99729.72;;;11.05;100.00
11343;BME280;5726;42.160;24.746;2022-12-17T12:06:17;99736.19;;;11.04;100.00
11343;BME280;5726;42.160;24.746;2022-12-17T12:18:01;99740.38;;;11.34;100.00
11343;BME280;5726;42.160;24.746;2022-12-17T12:24:37;99714.22;;;11.44;100.00
11343;BME280;5726;42.160;24.746;2022-12-17T12:30:21;99701.31;;;11.46;100.00
11343;BME280;5726;42.160;24.746;2022-12-17T12:35:59;99681.78;;;11.95;100.00
11343;BME280;5726;42.160;24.746;2022-12-17T12:38:46;99667.44;;;11.87;100.00
11343;BME280;5726;42.160;24.746;2022-12-17T12:44:36;99682.22;;;11.84;100.00
11343;BME280;5726;42.160;24.746;2022-12-17T12:47:29;99664.28;;;11.98;100.00
11343;BME280;5726;42.160;24.746;2022-12-17T12:50:32;99659.56;;;12.08;100.00
11343;BME280;5726;42.160;24.746;2022-12-17T12:53:19;99655.09;;;12.17;100.00
11343;BME280;5726;42.160;24.746;2022-12-17T12:56:03;99649.38;;;12.64;100.00
11343;BME280;5726;42.160;24.746;2022-12-17T12:58:47;99645.78;;;12.55;100.00
11343;BME280;5726;42.160;24.746;2022-12-17T13:01:33;99653.56;;;12.43;100.00
11343;BME280;5726;42.160;24.746;2022-12-17T13:04:32;99670.91;;;12.64;100.00
11343;BME280;5726;42.160;24.746;2022-12-17T13:07:25;99657.59;;;12.86;100.00
11343;BME280;5726;42.160;24.746;2022-12-17T13:09:53;99641.94;;;12.88;100.00
11343;BME280;5726;42.160;24.746;2022-12-17T13:12:33;99649.72;;;12.89;100.00
11343;BME280;5726;42.160;24.746;2022-12-17T13:20:25;99652.56;;;13.33;100.00
11343;BME280;5726;42.160;24.746;2022-12-17T13:25:36;99653.00;;;13.13;100.00
11343;BME280;5726;42.160;24.746;2022-12-17T13:28:02;99646.59;;;13.22;100.00
11343;BME280;5726;42.160;24.746;2022-12-17T13:30:36;99644.69;;;13.36;100.00
11343;BME280;5726;42.160;24.746;2022-12-17T13:38:32;99673.19;;;13.72;100.00
11343;BME280;5726;42.160;24.746;2022-12-17T13:41:16;99673.19;;;13.72;100.00
11343;BME280;5726;42.160;24.746;2022-12-17T13:43:51;99678.63;;;13.59;100.00
11343;BME280;5726;42.160;24.746;2022-12-17T13:46:22;99680.56;;;13.80;100.00
11343;BME280;5726;42.160;24.746;2022-12-17T13:49:01;99675.97;;;13.81;100.00
11343;BME280;5726;42.160;24.746;2022-12-17T13:51:33;99675.09;;;13.93;100.00
11343;BME280;5726;42.160;24.746;2022-12-17T13:54:02;99669.09;;;13.96;100.00
11343;BME280;5726;42.160;24.746;2022-12-17T13:56:36;99686.88;;;13.97;100.00
11343;BME280;5726;42.160;24.746;2022-12-17T13:59:03;99677.72;;;13.98;100.00
11343;BME280;5726;42.160;24.746;2022-12-17T14:01:30;99685.78;;;13.98;100.00
11343;BME280;5726;42.160;24.746;2022-12-17T14:04:00;99690.97;;;13.95;100.00
11343;BME280;5726;42.160;24.746;2022-12-17T14:06:34;99688.84;;;13.84;100.00
11343;BME280;5726;42.160;24.746;2022-12-17T14:09:01;99688.50;;;13.98;100.00
11343;BME280;5726;42.160;24.746;2022-12-17T14:11:27;99686.88;;;13.97;100.00
11343;BME280;5726;42.160;24.746;2022-12-17T14:14:35;99686.06;;;14.10;100.00
11343;BME280;5726;42.160;24.746;2022-12-17T14:17:01;99684.72;;;14.21;100.00
11343;BME280;5726;42.160;24.746;2022-12-17T14:19:27;99696.03;;;13.88;100.00
11343;BME280;5726;42.160;24.746;2022-12-17T14:21:53;99704.75;;;13.72;100.00
11343;BME280;5726;42.160;24.746;2022-12-17T14:24:21;99713.72;;;13.81;100.00
11343;BME280;5726;42.160;24.746;2022-12-17T14:26:53;99715.66;;;13.88;100.00
11343;BME280;5726;42.160;24.746;2022-12-17T14:29:26;99714.19;;;13.83;100.00
11343;BME280;5726;42.160;24.746;2022-12-17T14:32:25;99698.59;;;13.44;100.00
11343;BME280;5726;42.160;24.746;2022-12-17T14:34:54;99686.25;;;13.43;100.00
11343;BME280;5726;42.160;24.746;2022-12-17T14:37:22;99693.38;;;13.75;100.00
11343;BME280;5726;42.160;24.746;2022-12-17T14:39:48;99701.09;;;13.89;100.00
11343;BME280;5726;42.160;24.746;2022-12-17T14:42:19;99712.31;;;13.70;100.00
11343;BME280;5726;42.160;24.746;2022-12-17T14:44:56;99728.63;;;13.65;100.00
11343;BME280;5726;42.160;24.746;2022-12-17T14:58:14;99762.56;;;13.66;100.00
11343;BME280;5726;42.160;24.746;2022-12-17T15:03:28;99767.84;;;13.44;100.00
11343;BME280;5726;42.160;24.746;2022-12-17T15:06:07;99766.97;;;13.97;100.00
11343;BME280;5726;42.160;24.746;2022-12-17T15:08:34;99776.28;;;14.26;100.00
11343;BME280;5726;42.160;24.746;2022-12-17T15:11:00;99788.16;;;14.47;100.00
11343;BME280;5726;42.160;24.746;2022-12-17T15:13:26;99799.97;;;14.73;100.00
11343;BME280;5726;42.160;24.746;2022-12-17T15:15:51;99801.97;;;14.67;100.00
11343;BME280;5726;42.160;24.746;2022-12-17T15:18:17;99789.94;;;14.51;100.00
11343;BME280;5726;42.160;24.746;2022-12-17T15:20:42;99790.94;;;14.55;100.00
11343;BME280;5726;42.160;24.746;2022-12-17T15:23:16;99802.19;;;14.49;100.00
11343;BME280;5726;42.160;24.746;2022-12-17T15:25:42;99820.69;;;14.42;100.00
11343;BME280;5726;42.160;24.746;2022-12-17T15:28:09;99850.56;;;14.32;100.00
11343;BME280;5726;42.160;24.746;2022-12-17T15:30:35;99868.97;;;14.30;100.00
11343;BME280;5726;42.160;24.746;2022-12-17T15:33:00;99871.59;;;14.08;100.00
11343;BME280;5726;42.160;24.746;2022-12-17T15:35:26;99878.19;;;14.02;100.00